Alpha, Ohio
Current Conditions -  °F | °C
As of 10:58 PM on Tuesday 27 Jan 2015 (Local Time) from KFFO Reporting Station
Clear Clear  
Wind Chill: -13°   Ceiling: Unl
Heat Index: -13°   Visibility: 7mi
Dew Point: -15°   Wind: 1mph
Humidity: 87%   Direction: 220°SW
Pressure: 30.23"   Gusts: NA
Location:  39.71°N, 84.02°W
Report Text: KFFO 280358Z 22001KT 7SM CLR M13/M15 A3023 RMK AO2A SLP256 VIS LWR RWY23R T11281145
Loading
Personal Weather Stations






























Interactive Weather Map New forecast layout! Learn more

10-Day Weather Forecast

Advertisements
Track Severe Weather on mobile